Home > Products > Valid Products > TAF

000
FTUS42 KTAE 180500
TAFABY
TAF
KABY 180522Z 1806/1906 08010G18KT 6SM -SHRA SCT020 BKN040
      TEMPO 1806/1810 5SM -RA BKN018
     FM181000 07010G20KT 2SM +RA BR BKN009
     FM181600 06015G25KT 2SM +TSRA BR BKN009CB
     FM190400 03010G20KT 3SM -DZ BR BKN007=



000
FTUS42 KTAE 180500
TAFDHN
TAF
KDHN 180522Z 1806/1906 08010G18KT 3SM RA SCT008 BKN018
      TEMPO 1806/1810 2SM +TSRA BKN009CB
     FM181000 06013G23KT 2SM +TSRA BR BKN009CB
     FM181500 05015G25KT 2SM +TSRA BR BKN009CB
     FM190000 01010G20KT 3SM -DZ BR BKN007=



000
FTUS42 KTAE 180500
TAFVLD
TAF
KVLD 180522Z 1806/1906 07007G15KT 5SM SHRA BKN018
      TEMPO 1806/1810 3SM RA BKN009
     FM181000 07007G16KT 2SM +RA BR BKN009
     FM181600 06012G20KT 2SM +TSRA BR BKN009CB
     FM190400 03010G20KT 3SM -DZ BR BKN007=



000
FTUS42 KTAE 180500
TAFTLH
TAF
KTLH 180522Z 1806/1906 08008G18KT 6SM -SHRA BKN018
      TEMPO 1806/1810 2SM +RA BKN009
     FM181000 07010G20KT 2SM +RA BR BKN009
     FM181600 06015G25KT 2SM +TSRA BR BKN009CB
     FM190200 03010G20KT 3SM -DZ BR BKN007=



000
FTUS42 KTAE 172300
TAFVLD
TAF
KVLD 172338Z 1800/1824 09010KT P6SM OVC020
     FM180700 08009KT 5SM RA OVC008
     FM181200 06013G20KT 2SM +RA VCTS OVC007CB
     FM182300 10017G25KT 4SM TSRA OVC010CB=



000
FTUS42 KTAE 172300
TAFTLH
TAF
KTLH 172338Z 1800/1824 08010KT P6SM BKN020
     FM180200 08010KT 5SM RA OVC018
     FM180800 07013G20KT 2SM +RA OVC006
     FM181900 14014G22KT 2SM +TSRA OVC010CB=



000
FTUS42 KTAE 172300
TAFDHN
TAF
KDHN 172338Z 1800/1824 07012G18KT P6SM OVC035
     FM180300 08011KT P6SM BKN025
     FM180700 07013KT 5SM RA OVC008
     FM181200 07013G20KT 2SM +RA OVC007
     FM182100 04017G25KT 4SM RA OVC010=



000
FTUS42 KTAE 172300
TAFABY
TAF
KABY 172338Z 1800/1824 07011G18KT P6SM OVC035
     FM180400 08011KT P6SM BKN025
     FM180700 06013KT 5SM RA OVC008
     FM181400 06013G20KT 2SM +RA OVC007
     FM182100 05014G19KT 4SM RA OVC010=



000
FTUS42 KTAE 172300 AAA
TAFTLH
TAF AMD
KTLH 172302Z 1723/1818 06012G18KT P6SM BKN025 OVC050
      TEMPO 1723/1724 2SM TSRA BKN020CB OVC050
     FM180200 08010KT P6SM OVC015
     FM180700 08010KT 5SM RA OVC008
     FM181200 07013G20KT 2SM +RA OVC006=



000
FTUS42 KTAE 171700
TAFDHN
TAF
KDHN 171720Z 1718/1818 07012G18KT P6SM FEW021
     FM180300 08011KT P6SM BKN025
     FM180900 07013KT 5SM RA OVC008
     FM181200 07013G20KT 2SM +RA OVC007=



000
FTUS42 KTAE 171700
TAFTLH
TAF
KTLH 171720Z 1718/1818 06012G18KT P6SM SCT026 SCT250
     FM180000 08010KT P6SM OVC015
     FM180700 08010KT 5SM RA OVC008
     FM181200 07013G20KT 2SM +RA OVC006=



000
FTUS42 KTAE 171700
TAFVLD
TAF
KVLD 171720Z 1718/1818 09010KT P6SM OVC020
     FM180900 08009KT 5SM RA OVC008
     FM181400 06013G20KT 2SM +RA OVC007=



000
FTUS42 KTAE 171700
TAFABY
TAF
KABY 171720Z 1718/1818 05011G18KT P6SM BKN028
     FM180300 08011KT P6SM BKN025
     FM180900 06013KT 5SM RA OVC008
     FM181400 06013G20KT 2SM +RA OVC007=



000
FTUS42 KTAE 171200 RRA
TAFTLH
TAF
KTLH 171202Z 1712/1812 06006KT P6SM BKN045
     FM171400 07011G18KT P6SM BKN025
     FM180300 08008KT P6SM OVC015
     FM180700 08008KT 5SM RA OVC008=



000
FTUS42 KTAE 171200 RRA
TAFABY
TAF
KABY 171202Z 1712/1812 08011G18KT P6SM BKN025
     FM171700 09010KT P6SM BKN040
     FM180300 08011KT P6SM BKN025
     FM180900 06013KT 5SM RA OVC008=



000
FTUS42 KTAE 171200 RRA
TAFVLD
TAF
KVLD 171202Z 1712/1812 06006KT P6SM BKN025
     FM171400 07011G18KT P6SM BKN025
     FM180500 08009KT 5SM RA OVC008=



000
FTUS42 KTAE 171200 RRA
TAFDHN
TAF
KDHN 171202Z 1712/1812 08006KT P6SM SCT045
     FM171400 08011G18KT P6SM BKN025
     FM171700 09009KT P6SM BKN040
     FM180300 08011KT P6SM BKN025
     FM180900 07013KT 5SM RA OVC008=



000
FTUS42 KTAE 170500
TAFABY
TAF
KABY 170520Z 1706/1806 07009KT P6SM SCT040
     FM171300 08011G18KT P6SM BKN025
     FM171700 09010KT P6SM BKN040
     FM180300 08011KT P6SM BKN025=



000
FTUS42 KTAE 170500
TAFVLD
TAF
KVLD 170520Z 1706/1806 05008KT P6SM SCT025
     FM170800 05011KT P6SM BKN025
     FM171300 07011G18KT P6SM BKN025
     FM180300 08009KT P6SM OVC015=



000
FTUS42 KTAE 170500
TAFDHN
TAF
KDHN 170520Z 1706/1806 08011KT P6SM SCT250
     FM171100 08011G18KT P6SM BKN025
     FM171700 09009KT P6SM BKN040
     FM180300 08011KT P6SM BKN025=



000
FTUS42 KTAE 170500
TAFTLH
TAF
KTLH 170520Z 1706/1806 08009KT P6SM SCT035
     FM170900 07011G18KT P6SM BKN025
     FM180300 08008KT P6SM OVC015=



000
FTUS42 KTAE 162300
TAFTLH
TAF
KTLH 162338Z 1700/1724 06007KT P6SM SKC
     FM170300 08006KT P6SM SCT030
     FM170900 06008KT P6SM BKN015
     FM171600 08010G15KT P6SM BKN025 BKN100=



000
FTUS42 KTAE 162300
TAFVLD
TAF
KVLD 162338Z 1700/1724 08008KT P6SM SCT030
     FM170600 04007KT P6SM BKN015
     FM171700 08010KT P6SM BKN030=



000
FTUS42 KTAE 162300
TAFABY
TAF
KABY 162338Z 1700/1724 07008KT P6SM SKC
     FM171100 05011KT P6SM BKN030
     FM171800 07014KT P6SM BKN040=



000
FTUS42 KTAE 162300
TAFDHN
TAF
KDHN 162338Z 1700/1724 08008KT P6SM SKC
     FM171200 08010G15KT P6SM BKN030
     FM172100 09010KT P6SM OVC020=



000
FTUS42 KTAE 161900 AAA
TAFVLD
TAF AMD
KVLD 161948Z 1620/1718 12008G17KT P6SM SKC
      TEMPO 1622/1624 BKN025
     FM170800 04007KT P6SM BKN015
     FM171500 08010G15KT P6SM BKN025 BKN100=



000
FTUS42 KTAE 161700
TAFTLH
TAF
KTLH 161726Z 1618/1718 07008G15KT P6SM SKC
     FM162300 08005KT P6SM SCT030 SCT250
     FM170900 06008KT P6SM BKN015
     FM171500 08010G15KT P6SM BKN025 BKN100=



000
FTUS42 KTAE 161700
TAFDHN
TAF
KDHN 161726Z 1618/1718 08008KT P6SM SKC
     FM170000 08007KT P6SM SCT250
     FM171100 08010KT P6SM BKN015
     FM171500 09012G18KT P6SM BKN030=



000
FTUS42 KTAE 161700
TAFVLD
TAF
KVLD 161726Z 1618/1718 07009G14KT P6SM SKC
     FM162000 08008G13KT P6SM SCT030 SCT250
      TEMPO 1620/1624 BKN025
     FM170800 04007KT P6SM BKN015
     FM171500 08010G15KT P6SM BKN025 BKN100=



000
FTUS42 KTAE 161700
TAFABY
TAF
KABY 161726Z 1618/1718 07007G14KT P6SM SKC
     FM162300 08008KT P6SM SCT250
     FM171000 05011KT P6SM BKN025
     FM171500 07012G18KT P6SM BKN035=



000
FTUS42 KTAE 161500 AAB
TAFABY
TAF AMD
KABY 161539Z 1616/1712 08011KT P6SM SKC
     FM161700 08011G18KT P6SM SKC
     FM162200 08009KT P6SM SCT250
     FM170900 05011KT P6SM BKN025=



000
FTUS42 KTAE 161500 AAB
TAFDHN
TAF AMD
KDHN 161539Z 1616/1712 09014G17KT P6SM SKC
     FM162200 08007KT P6SM SCT250
     FM170900 08010KT P6SM BKN015=



000
FTUS42 KTAE 161500 AAA
TAFTLH
TAF AMD
KTLH 161538Z 1616/1712 06008KT P6SM FEW150
     FM162200 08006KT P6SM SCT030 SCT250
     FM170800 06010KT P6SM BKN015=



000
FTUS42 KTAE 161300 AAA
TAFABY
TAF AMD
KABY 161301Z 1613/1712 05018G23KT P6SM SKC
     FM161700 08011G18KT P6SM SKC
     FM162200 08009KT P6SM SCT250
     FM170900 05011KT P6SM BKN025=



000
FTUS42 KTAE 161300 AAA
TAFDHN
TAF AMD
KDHN 161301Z 1613/1712 06011G19KT P6SM SKC
     FM162200 08007KT P6SM SCT250
     FM170900 08010KT P6SM BKN015=



000
FTUS42 KTAE 161100
TAFDHN
TAF
KDHN 161120Z 1612/1712 03005KT P6SM SKC
     FM161400 07011G19KT P6SM SKC
     FM162200 08007KT P6SM SCT250
     FM170900 08010KT P6SM BKN015=



000
FTUS42 KTAE 161100
TAFTLH
TAF
KTLH 161120Z 1612/1712 02006KT P6SM FEW250
     FM161400 06010G18KT P6SM SKC
     FM162200 08006KT P6SM SCT030 SCT250
     FM170800 06010KT P6SM BKN015=



000
FTUS42 KTAE 161100
TAFABY
TAF
KABY 161120Z 1612/1712 03005KT P6SM SKC
     FM161400 08011G18KT P6SM SKC
     FM162200 08009KT P6SM SCT250
     FM170900 05011KT P6SM BKN025=



000
FTUS42 KTAE 161100
TAFVLD
TAF
KVLD 161120Z 1612/1712 01010KT P6SM SKC
     FM161400 05011G18KT P6SM SKC
     FM162200 08009KT P6SM SCT030 SCT250
     FM170800 05009KT P6SM BKN015=



000
FTUS42 KTAE 160500
TAFTLH
TAF
KTLH 160520Z 1606/1706 36008KT P6SM SCT250
     FM161400 06010G18KT P6SM SKC
     FM162300 08006KT P6SM FEW045 SCT250=



000
FTUS42 KTAE 160500
TAFDHN
TAF
KDHN 160520Z 1606/1706 01009KT P6SM FEW250
     FM161400 08011G19KT P6SM SKC
     FM162300 07007KT P6SM SCT250=



000
FTUS42 KTAE 160500
TAFABY
TAF
KABY 160520Z 1606/1706 36008KT P6SM SCT250
     FM161400 07011G18KT P6SM SKC
     FM162300 08009KT P6SM SCT250=



000
FTUS42 KTAE 160500
TAFVLD
TAF
KVLD 160520Z 1606/1706 02007KT P6SM SCT250
     FM161400 05011G18KT P6SM SKC
     FM162300 08008KT P6SM FEW045 SCT250=



000
FTUS42 KTAE 152300
TAFTLH
TAF
KTLH 152322Z 1600/1624 35012G22KT P6SM BKN025
     FM160200 35008KT P6SM SKC
     FM161600 05011G17KT P6SM SKC=



000
FTUS42 KTAE 152300
TAFABY
TAF
KABY 152322Z 1600/1624 34012G20KT P6SM SKC
     FM160300 34007KT P6SM SKC
     FM161500 06013G20KT P6SM SKC=



000
FTUS42 KTAE 152300
TAFVLD
TAF
KVLD 152322Z 1600/1624 33012G18KT P6SM BKN020
     FM160200 35010KT P6SM SKC
     FM161500 05013G20KT P6SM SKC=



000
FTUS42 KTAE 152300
TAFDHN
TAF
KDHN 152322Z 1600/1624 36010KT P6SM SKC
     FM160600 01007KT P6SM SKC
     FM161500 07014G20KT P6SM SKC=



000
FTUS42 KTAE 151900 AAA
TAFVLD
TAF AMD
KVLD 151944Z 1520/1618 31008G17KT 4SM -RA BKN008 OVC013
     FM152100 34015G22KT P6SM BKN010
     FM160600 36004KT P6SM SKC
     FM161500 06010G15KT P6SM SKC=



000
FTUS42 KTAE 151900 AAA
TAFDHN
TAF AMD
KDHN 151944Z 1520/1618 31017G24KT P6SM OVC021
     FM160000 36012KT P6SM SKC
     FM161500 08013G20KT P6SM SKC=



000
FTUS42 KTAE 151700
TAFABY
TAF
KABY 151736Z 1518/1618 30016G22KT P6SM OVC012
     FM160200 34011KT P6SM SKC
     FM161500 07011G17KT P6SM SKC=



000
FTUS42 KTAE 151700
TAFDHN
TAF
KDHN 151736Z 1518/1618 31018G25KT P6SM OVC015
     FM160100 36012KT P6SM SKC
     FM161500 08013G20KT P6SM SKC=



000
FTUS42 KTAE 151700
TAFVLD
TAF
KVLD 151736Z 1518/1618 23005KT P6SM -RA SCT010 BKN025 OVC060
     FM152000 34015G22KT P6SM BKN010
     FM160600 36004KT P6SM SKC
     FM161500 06010G15KT P6SM SKC=



000
FTUS42 KTAE 151700
TAFTLH
TAF
KTLH 151736Z 1518/1618 33015G25KT P6SM SCT008 OVC015
     FM160000 34010KT P6SM BKN020
     FM160400 35005KT P6SM SKC
     FM161500 07012G18KT P6SM SKC=



000
FTUS42 KTAE 151600 AAB
TAFVLD
TAF AMD
KVLD 151636Z 1517/1612 19007KT 3SM -TSRA FEW008 BKN010CB
     FM151800 35010G15KT P6SM BKN040
     FM160200 36004KT P6SM SKC=



000
FTUS42 KTAE 151600 AAB
TAFDHN
TAF AMD
KDHN 151630Z 1517/1612 33015G20KT P6SM -RA BKN009
     FM151800 33015G20KT P6SM BKN010
     FM160200 36012KT P6SM SKC
     FM161000 01007KT P6SM SKC=



000
FTUS42 KTAE 151600 AAB
TAFTLH
TAF AMD
KTLH 151629Z 1516/1612 29015G20KT 3SM BR FEW008 BKN015
     FM151800 29015G20KT P6SM BKN010
     FM160000 34011KT P6SM SKC
     FM160600 36007KT P6SM SKC=



000
FTUS42 KTAE 151500 AAD
TAFABY
TAF AMD
KABY 151544Z 1516/1612 31020G30KT 5SM RA BR BKN007
     FM151800 32018G26KT P6SM SCT040
     FM160000 32011KT P6SM SKC
     FM160800 36008KT P6SM SKC=



000
FTUS42 KTAE 151400 AAC
TAFABY
TAF AMD
KABY 151432Z 1515/1612 20008KT 5SM RA BR BKN005
     FM151600 29013G21KT P6SM BKN020
     FM151800 32018G26KT P6SM SCT040
     FM160000 32011KT P6SM SKC
     FM160800 36008KT P6SM SKC=



000
FTUS42 KTAE 151400 AAA
TAFVLD
TAF AMD
KVLD 151421Z 1514/1612 19007KT 5SM RA BR BKN007
     FM151800 35010G15KT P6SM BKN040
     FM160200 36004KT P6SM SKC=



000
FTUS42 KTAE 151400 AAA
TAFTLH
TAF AMD
KTLH 151406Z 1514/1612 23008KT 6SM BR BKN007 BKN010
     FM151500 33015G22KT P6SM -RA BKN020 OVC100
     FM151900 32015G25KT P6SM SCT025
     FM160000 34011KT P6SM SKC
     FM160600 36007KT P6SM SKC=



000
FTUS42 KTAE 151300 AAB
TAFABY
TAF AMD
KABY 151341Z 1514/1612 32007KT P6SM SCT005 BKN014 OVC100
      TEMPO 1514/1515 3/4SM +RA BR BKN005
     FM151500 29013G21KT P6SM BKN020
     FM151800 32018G26KT P6SM SCT040
     FM160000 32011KT P6SM SKC
     FM160800 36008KT P6SM SKC=



000
FTUS42 KTAE 151300 AAA
TAFDHN
TAF AMD
KDHN 151300Z 1513/1612 29020G30KT 6SM -RA BR BKN007 OVC020
     FM151400 32015G25KT P6SM SCT007 BKN020
     FM151700 34020G29KT P6SM SCT040
     FM160200 36012KT P6SM SKC
     FM161000 01007KT P6SM SKC=



000
FTUS42 KTAE 151200 AAA
TAFABY
TAF AMD
KABY 151258Z 1513/1612 32007KT P6SM SCT005 BKN014 OVC100
      TEMPO 1513/1515 3SM RA BKN010
     FM151500 29013G21KT P6SM BKN020
     FM151800 32018G26KT P6SM SCT040
     FM160000 32011KT P6SM SKC
     FM160800 36008KT P6SM SKC=



000
FTUS42 KTAE 151100
TAFABY
TAF
KABY 151139Z 1512/1612 32007KT P6SM -SHRA SCT005 BKN014 OVC100
      TEMPO 1512/1514 BKN005
     FM151400 29013G21KT P6SM BKN020
     FM151800 32018G26KT P6SM SCT040
     FM160000 32011KT P6SM SKC
     FM160800 36008KT P6SM SKC=



000
FTUS42 KTAE 151100
TAFVLD
TAF
KVLD 151139Z 1512/1612 23008KT 3SM TSRA FEW005 OVC030CB
      TEMPO 1512/1514 1SM +TSRA BKN005 OVC010CB
     FM151600 30012G18KT 6SM -SHRA OVC015
     FM152000 35010KT P6SM BKN040
     FM160200 36004KT P6SM SKC=



000
FTUS42 KTAE 151100
TAFTLH
TAF
KTLH 151139Z 1512/1612 23008KT 2SM +TSRA BKN012CB OVC023
     FM151300 30008G13KT 6SM -SHRA BKN010 OVC015
     FM151500 33015G22KT P6SM -RA BKN020 OVC100
     FM151900 32015G25KT P6SM SCT025
     FM160000 34011KT P6SM SKC
     FM160600 36007KT P6SM SKC=



000
FTUS42 KTAE 151100
TAFDHN
TAF
KDHN 151139Z 1512/1612 30006KT 3SM -SHRA BR BKN003 OVC020
     FM151400 32015G25KT P6SM SCT007 BKN020
     FM151700 34020G29KT P6SM SCT040
     FM160200 36012KT P6SM SKC
     FM161000 01007KT P6SM SKC=



000
FTUS42 KTAE 151000 AAA
TAFVLD
TAF AMD
KVLD 151038Z 1511/1606 00000KT 1/4SM +TSRA BKN008CB BKN013 OVC018
     FM151100 23010G16KT 3SM TSRA BKN007CB OVC015
     FM151800 30012G18KT 6SM -SHRA OVC015
     FM152200 35010KT P6SM BKN040
     FM160200 36004KT P6SM SKC=



000
FTUS42 KTAE 150600 AAA
TAFDHN
TAF AMD
KDHN 150613Z 1506/1606 15015G25KT 5SM RA BR SCT007 OVC100
     FM151100 30013G18KT 6SM -SHRA OVC007
     FM151400 32015G25KT P6SM BKN020
     FM151700 34020G29KT P6SM SCT040=



    US Dept of Commerce
    National Oceanic and Atmospheric Administration
    National Weather Service
    1325 East West Highway
    Silver Spring, MD 20910
    Page Author: NWS Internet Services Team
Disclaimer
Information Quality
Credits
Glossary
Privacy Policy
Freedom of Information Act (FOIA)
About Us
Career Opportunities